Southwest Washington Regional Airport Kelso US
ICAO: KKLS
IATA: KLS
Category: Medium
Scheduled Services: No

Elevation: 20 ft
TransAlt. 18000 ft.

Airport Communications:
AWOS 3:135.075
SEATTLE CNTR:124.2
SEATTLE RDO:122.25
CTAF/UNICOM:122.8

KKLS Zoom In..

If you have problems with the map follow the link
https://www.worldairports.se/pages/airport.php?
ICAO=KKLS

Runways:

(A) RW 12 length 4391 ft width 100 ft
---- / hdg 123

(B) RW 30 length 4391 ft width 100 ft
---- / hdg 303

Location; KKLS
Day. 21 / Time. 03.56 Zulu
* Altimeter: 29.77
* Temperature: 07° c. 44.6°f.
* Wind from: 150° Speed 05 kn.
Dewpoint: 03° c.
Visibility: 10 Statute Miles.
Clouds: Scattered 12000 ft.

KKLS 210356Z AUTO 15005KT 10SM SCT120 07/03 A2977 RMK AO2 SLP086 T00670028


Wind From 150°
Speed 05 kn.

 
 
jpsmedia worldairports.se 2020   terms of use